sensor_id;sensor_type;location;lat;lon;timestamp;P1;durP1;ratioP1;P2;durP2;ratioP2
9898;SDS011;4988;49.238;6.698;2023-06-04T00:00:07;5.70;;;2.90;;
9898;SDS011;4988;49.238;6.698;2023-06-04T00:02:33;6.03;;;3.03;;
9898;SDS011;4988;49.238;6.698;2023-06-04T00:04:58;4.73;;;3.03;;
9898;SDS011;4988;49.238;6.698;2023-06-04T00:07:23;5.40;;;2.70;;
9898;SDS011;4988;49.238;6.698;2023-06-04T00:09:49;6.17;;;2.90;;
9898;SDS011;4988;49.238;6.698;2023-06-04T00:12:14;6.60;;;3.10;;
9898;SDS011;4988;49.238;6.698;2023-06-04T00:14:40;6.83;;;2.97;;
9898;SDS011;4988;49.238;6.698;2023-06-04T00:17:07;7.80;;;3.20;;
9898;SDS011;4988;49.238;6.698;2023-06-04T00:19:34;5.70;;;2.60;;
9898;SDS011;4988;49.238;6.698;2023-06-04T00:21:59;6.60;;;3.20;;
9898;SDS011;4988;49.238;6.698;2023-06-04T00:24:24;4.53;;;2.57;;
9898;SDS011;4988;49.238;6.698;2023-06-04T00:26:50;6.17;;;3.00;;
9898;SDS011;4988;49.238;6.698;2023-06-04T00:29:15;6.77;;;2.77;;
9898;SDS011;4988;49.238;6.698;2023-06-04T00:31:40;6.57;;;2.67;;
9898;SDS011;4988;49.238;6.698;2023-06-04T00:34:06;6.10;;;2.97;;
9898;SDS011;4988;49.238;6.698;2023-06-04T00:36:31;4.73;;;2.90;;
9898;SDS011;4988;49.238;6.698;2023-06-04T00:38:57;3.97;;;2.40;;
9898;SDS011;4988;49.238;6.698;2023-06-04T00:41:22;3.73;;;2.33;;
9898;SDS011;4988;49.238;6.698;2023-06-04T00:43:47;5.83;;;2.50;;
9898;SDS011;4988;49.238;6.698;2023-06-04T00:46:20;7.23;;;2.70;;
9898;SDS011;4988;49.238;6.698;2023-06-04T00:48:46;5.90;;;3.00;;
9898;SDS011;4988;49.238;6.698;2023-06-04T00:51:12;7.50;;;2.70;;
9898;SDS011;4988;49.238;6.698;2023-06-04T00:53:37;5.10;;;2.67;;
9898;SDS011;4988;49.238;6.698;2023-06-04T00:56:03;4.83;;;2.53;;
9898;SDS011;4988;49.238;6.698;2023-06-04T00:58:30;4.10;;;2.60;;
9898;SDS011;4988;49.238;6.698;2023-06-04T01:00:56;3.10;;;2.53;;
9898;SDS011;4988;49.238;6.698;2023-06-04T01:03:25;5.00;;;2.60;;
9898;SDS011;4988;49.238;6.698;2023-06-04T01:06:00;14.13;;;2.63;;
9898;SDS011;4988;49.238;6.698;2023-06-04T01:08:46;2.93;;;2.20;;
9898;SDS011;4988;49.238;6.698;2023-06-04T01:11:14;3.93;;;2.53;;
9898;SDS011;4988;49.238;6.698;2023-06-04T01:13:39;6.73;;;2.67;;
9898;SDS011;4988;49.238;6.698;2023-06-04T01:16:05;3.77;;;2.47;;
9898;SDS011;4988;49.238;6.698;2023-06-04T01:18:30;4.80;;;2.53;;
9898;SDS011;4988;49.238;6.698;2023-06-04T01:21:02;4.23;;;2.17;;
9898;SDS011;4988;49.238;6.698;2023-06-04T01:26:26;2.90;;;2.23;;
9898;SDS011;4988;49.238;6.698;2023-06-04T01:28:53;7.30;;;2.60;;
9898;SDS011;4988;49.238;6.698;2023-06-04T01:31:20;3.23;;;2.33;;
9898;SDS011;4988;49.238;6.698;2023-06-04T01:33:52;4.00;;;2.63;;
9898;SDS011;4988;49.238;6.698;2023-06-04T01:36:18;5.77;;;2.57;;
9898;SDS011;4988;49.238;6.698;2023-06-04T01:38:44;5.47;;;2.30;;
9898;SDS011;4988;49.238;6.698;2023-06-04T01:41:10;5.23;;;2.40;;
9898;SDS011;4988;49.238;6.698;2023-06-04T01:43:35;4.10;;;2.53;;
9898;SDS011;4988;49.238;6.698;2023-06-04T01:46:01;2.73;;;2.30;;
9898;SDS011;4988;49.238;6.698;2023-06-04T01:48:27;3.53;;;2.27;;
9898;SDS011;4988;49.238;6.698;2023-06-04T01:50:52;3.20;;;2.57;;
9898;SDS011;4988;49.238;6.698;2023-06-04T01:53:18;6.57;;;2.50;;
9898;SDS011;4988;49.238;6.698;2023-06-04T01:55:43;7.27;;;2.50;;
9898;SDS011;4988;49.238;6.698;2023-06-04T01:58:09;5.03;;;2.53;;
9898;SDS011;4988;49.238;6.698;2023-06-04T02:00:35;4.00;;;2.10;;
9898;SDS011;4988;49.238;6.698;2023-06-04T02:03:00;5.97;;;2.30;;
9898;SDS011;4988;49.238;6.698;2023-06-04T02:05:25;5.30;;;2.20;;
9898;SDS011;4988;49.238;6.698;2023-06-04T02:07:51;5.17;;;2.47;;
9898;SDS011;4988;49.238;6.698;2023-06-04T02:10:18;6.93;;;2.83;;
9898;SDS011;4988;49.238;6.698;2023-06-04T02:12:57;4.70;;;2.50;;
9898;SDS011;4988;49.238;6.698;2023-06-04T02:15:25;3.63;;;2.30;;
9898;SDS011;4988;49.238;6.698;2023-06-04T02:17:53;3.23;;;2.20;;
9898;SDS011;4988;49.238;6.698;2023-06-04T02:20:20;5.83;;;2.50;;
9898;SDS011;4988;49.238;6.698;2023-06-04T02:22:45;9.37;;;2.40;;
9898;SDS011;4988;49.238;6.698;2023-06-04T02:25:11;6.00;;;2.53;;
9898;SDS011;4988;49.238;6.698;2023-06-04T02:27:36;4.03;;;2.47;;
9898;SDS011;4988;49.238;6.698;2023-06-04T02:30:05;4.40;;;2.57;;
9898;SDS011;4988;49.238;6.698;2023-06-04T02:32:31;4.03;;;2.60;;
9898;SDS011;4988;49.238;6.698;2023-06-04T02:34:56;3.07;;;2.13;;
9898;SDS011;4988;49.238;6.698;2023-06-04T02:37:21;7.33;;;2.40;;
9898;SDS011;4988;49.238;6.698;2023-06-04T02:39:47;3.73;;;2.73;;
9898;SDS011;4988;49.238;6.698;2023-06-04T02:42:12;4.20;;;2.70;;
9898;SDS011;4988;49.238;6.698;2023-06-04T02:44:38;6.83;;;2.53;;
9898;SDS011;4988;49.238;6.698;2023-06-04T02:47:03;5.00;;;2.40;;
9898;SDS011;4988;49.238;6.698;2023-06-04T02:49:29;4.57;;;2.30;;
9898;SDS011;4988;49.238;6.698;2023-06-04T02:51:55;5.40;;;2.60;;
9898;SDS011;4988;49.238;6.698;2023-06-04T02:54:20;4.57;;;2.30;;
9898;SDS011;4988;49.238;6.698;2023-06-04T02:56:45;3.77;;;2.30;;
9898;SDS011;4988;49.238;6.698;2023-06-04T02:59:11;8.23;;;2.60;;
9898;SDS011;4988;49.238;6.698;2023-06-04T03:01:36;4.17;;;2.40;;
9898;SDS011;4988;49.238;6.698;2023-06-04T03:04:01;5.80;;;2.53;;
9898;SDS011;4988;49.238;6.698;2023-06-04T03:06:34;4.03;;;2.60;;
9898;SDS011;4988;49.238;6.698;2023-06-04T03:09:03;3.40;;;2.40;;
9898;SDS011;4988;49.238;6.698;2023-06-04T03:11:28;6.30;;;2.40;;
9898;SDS011;4988;49.238;6.698;2023-06-04T03:13:54;4.30;;;2.40;;
9898;SDS011;4988;49.238;6.698;2023-06-04T03:16:19;5.50;;;2.27;;
9898;SDS011;4988;49.238;6.698;2023-06-04T03:18:45;4.77;;;2.20;;
9898;SDS011;4988;49.238;6.698;2023-06-04T03:21:11;3.73;;;2.20;;
9898;SDS011;4988;49.238;6.698;2023-06-04T03:23:37;3.73;;;2.43;;
9898;SDS011;4988;49.238;6.698;2023-06-04T03:26:02;4.57;;;2.43;;
9898;SDS011;4988;49.238;6.698;2023-06-04T03:28:30;2.97;;;2.17;;
9898;SDS011;4988;49.238;6.698;2023-06-04T03:30:56;7.00;;;2.40;;
9898;SDS011;4988;49.238;6.698;2023-06-04T03:33:21;4.33;;;2.43;;
9898;SDS011;4988;49.238;6.698;2023-06-04T03:35:46;5.20;;;2.40;;
9898;SDS011;4988;49.238;6.698;2023-06-04T03:38:13;4.60;;;2.70;;
9898;SDS011;4988;49.238;6.698;2023-06-04T03:40:38;6.47;;;2.40;;
9898;SDS011;4988;49.238;6.698;2023-06-04T03:43:04;4.90;;;2.37;;
9898;SDS011;4988;49.238;6.698;2023-06-04T03:45:29;3.80;;;2.13;;
9898;SDS011;4988;49.238;6.698;2023-06-04T03:47:55;3.40;;;2.00;;
9898;SDS011;4988;49.238;6.698;2023-06-04T03:50:20;2.90;;;2.30;;
9898;SDS011;4988;49.238;6.698;2023-06-04T03:52:46;4.07;;;2.20;;
9898;SDS011;4988;49.238;6.698;2023-06-04T03:55:12;4.83;;;2.53;;
9898;SDS011;4988;49.238;6.698;2023-06-04T03:57:38;3.87;;;2.30;;
9898;SDS011;4988;49.238;6.698;2023-06-04T04:00:05;4.20;;;2.37;;
9898;SDS011;4988;49.238;6.698;2023-06-04T04:02:31;3.33;;;2.20;;
9898;SDS011;4988;49.238;6.698;2023-06-04T04:04:56;3.07;;;2.10;;
9898;SDS011;4988;49.238;6.698;2023-06-04T04:07:22;4.17;;;2.50;;
9898;SDS011;4988;49.238;6.698;2023-06-04T04:09:48;4.30;;;2.20;;
9898;SDS011;4988;49.238;6.698;2023-06-04T04:12:13;6.07;;;2.20;;
9898;SDS011;4988;49.238;6.698;2023-06-04T04:14:39;3.57;;;2.10;;
9898;SDS011;4988;49.238;6.698;2023-06-04T04:17:04;3.20;;;2.00;;
9898;SDS011;4988;49.238;6.698;2023-06-04T04:19:29;5.70;;;2.57;;
9898;SDS011;4988;49.238;6.698;2023-06-04T04:21:55;3.70;;;2.27;;
9898;SDS011;4988;49.238;6.698;2023-06-04T04:26:48;4.70;;;2.20;;
9898;SDS011;4988;49.238;6.698;2023-06-04T04:29:18;3.90;;;2.37;;
9898;SDS011;4988;49.238;6.698;2023-06-04T04:31:47;6.10;;;2.00;;
9898;SDS011;4988;49.238;6.698;2023-06-04T04:34:16;3.63;;;1.90;;
9898;SDS011;4988;49.238;6.698;2023-06-04T04:36:42;10.97;;;2.50;;
9898;SDS011;4988;49.238;6.698;2023-06-04T04:39:09;3.43;;;1.90;;
9898;SDS011;4988;49.238;6.698;2023-06-04T04:41:34;2.80;;;1.90;;
9898;SDS011;4988;49.238;6.698;2023-06-04T04:44:03;2.93;;;1.80;;
9898;SDS011;4988;49.238;6.698;2023-06-04T04:46:30;6.20;;;2.07;;
9898;SDS011;4988;49.238;6.698;2023-06-04T04:48:55;7.93;;;2.10;;
9898;SDS011;4988;49.238;6.698;2023-06-04T04:51:21;4.27;;;1.97;;
9898;SDS011;4988;49.238;6.698;2023-06-04T04:53:47;4.33;;;2.23;;
9898;SDS011;4988;49.238;6.698;2023-06-04T04:56:12;4.37;;;2.00;;
9898;SDS011;4988;49.238;6.698;2023-06-04T04:58:37;6.97;;;2.33;;
9898;SDS011;4988;49.238;6.698;2023-06-04T05:01:03;3.33;;;1.90;;
9898;SDS011;4988;49.238;6.698;2023-06-04T05:03:28;5.93;;;1.90;;
9898;SDS011;4988;49.238;6.698;2023-06-04T05:05:54;4.10;;;1.63;;
9898;SDS011;4988;49.238;6.698;2023-06-04T05:08:19;4.53;;;2.07;;
9898;SDS011;4988;49.238;6.698;2023-06-04T05:10:45;4.33;;;2.13;;
9898;SDS011;4988;49.238;6.698;2023-06-04T05:13:10;5.47;;;2.00;;
9898;SDS011;4988;49.238;6.698;2023-06-04T05:15:36;5.07;;;1.70;;
9898;SDS011;4988;49.238;6.698;2023-06-04T05:18:02;4.73;;;2.00;;
9898;SDS011;4988;49.238;6.698;2023-06-04T05:20:28;3.30;;;2.10;;
9898;SDS011;4988;49.238;6.698;2023-06-04T05:22:54;3.63;;;1.90;;
9898;SDS011;4988;49.238;6.698;2023-06-04T05:25:20;11.23;;;2.00;;
9898;SDS011;4988;49.238;6.698;2023-06-04T05:27:46;4.33;;;1.80;;
9898;SDS011;4988;49.238;6.698;2023-06-04T05:30:14;5.80;;;1.90;;
9898;SDS011;4988;49.238;6.698;2023-06-04T05:32:40;3.30;;;1.73;;
9898;SDS011;4988;49.238;6.698;2023-06-04T05:35:06;1.80;;;1.40;;
9898;SDS011;4988;49.238;6.698;2023-06-04T05:37:33;5.20;;;1.80;;
9898;SDS011;4988;49.238;6.698;2023-06-04T05:39:59;8.43;;;2.00;;
9898;SDS011;4988;49.238;6.698;2023-06-04T05:42:25;6.67;;;2.00;;
9898;SDS011;4988;49.238;6.698;2023-06-04T05:44:50;5.13;;;2.20;;
9898;SDS011;4988;49.238;6.698;2023-06-04T05:47:16;8.77;;;1.97;;
9898;SDS011;4988;49.238;6.698;2023-06-04T05:49:42;6.33;;;1.80;;
9898;SDS011;4988;49.238;6.698;2023-06-04T05:52:07;4.00;;;1.90;;
9898;SDS011;4988;49.238;6.698;2023-06-04T05:54:32;4.77;;;1.80;;
9898;SDS011;4988;49.238;6.698;2023-06-04T05:56:58;5.53;;;2.10;;
9898;SDS011;4988;49.238;6.698;2023-06-04T05:59:23;3.60;;;2.00;;
9898;SDS011;4988;49.238;6.698;2023-06-04T06:01:49;2.40;;;1.60;;
9898;SDS011;4988;49.238;6.698;2023-06-04T06:04:14;4.03;;;1.80;;
9898;SDS011;4988;49.238;6.698;2023-06-04T06:06:41;3.20;;;1.80;;
9898;SDS011;4988;49.238;6.698;2023-06-04T06:09:09;3.93;;;1.83;;
9898;SDS011;4988;49.238;6.698;2023-06-04T06:11:35;3.40;;;1.77;;
9898;SDS011;4988;49.238;6.698;2023-06-04T06:14:00;4.90;;;1.60;;
9898;SDS011;4988;49.238;6.698;2023-06-04T06:16:26;10.80;;;1.77;;
9898;SDS011;4988;49.238;6.698;2023-06-04T06:18:52;2.23;;;1.67;;
9898;SDS011;4988;49.238;6.698;2023-06-04T06:21:17;5.13;;;1.50;;
9898;SDS011;4988;49.238;6.698;2023-06-04T06:23:43;5.40;;;1.73;;
9898;SDS011;4988;49.238;6.698;2023-06-04T06:26:08;2.30;;;1.60;;
9898;SDS011;4988;49.238;6.698;2023-06-04T06:28:33;2.70;;;1.70;;
9898;SDS011;4988;49.238;6.698;2023-06-04T06:31:00;3.93;;;2.13;;
9898;SDS011;4988;49.238;6.698;2023-06-04T06:33:26;2.70;;;1.67;;
9898;SDS011;4988;49.238;6.698;2023-06-04T06:35:52;4.53;;;1.57;;
9898;SDS011;4988;49.238;6.698;2023-06-04T06:38:17;4.37;;;1.60;;
9898;SDS011;4988;49.238;6.698;2023-06-04T06:40:42;3.40;;;1.50;;
9898;SDS011;4988;49.238;6.698;2023-06-04T06:43:08;5.03;;;1.50;;
9898;SDS011;4988;49.238;6.698;2023-06-04T06:45:34;4.20;;;1.70;;
9898;SDS011;4988;49.238;6.698;2023-06-04T06:48:00;2.37;;;1.53;;
9898;SDS011;4988;49.238;6.698;2023-06-04T06:50:25;4.27;;;1.77;;
9898;SDS011;4988;49.238;6.698;2023-06-04T06:52:51;7.47;;;1.57;;
9898;SDS011;4988;49.238;6.698;2023-06-04T06:55:16;6.57;;;1.70;;
9898;SDS011;4988;49.238;6.698;2023-06-04T06:57:41;3.37;;;1.80;;
9898;SDS011;4988;49.238;6.698;2023-06-04T07:00:07;2.83;;;1.87;;
9898;SDS011;4988;49.238;6.698;2023-06-04T07:02:33;3.23;;;1.70;;
9898;SDS011;4988;49.238;6.698;2023-06-04T07:04:58;4.63;;;1.50;;
9898;SDS011;4988;49.238;6.698;2023-06-04T07:07:24;3.50;;;1.40;;
9898;SDS011;4988;49.238;6.698;2023-06-04T07:09:49;3.83;;;1.70;;
9898;SDS011;4988;49.238;6.698;2023-06-04T07:12:15;6.87;;;1.70;;
9898;SDS011;4988;49.238;6.698;2023-06-04T07:14:40;7.00;;;1.67;;
9898;SDS011;4988;49.238;6.698;2023-06-04T07:17:05;3.70;;;1.70;;
9898;SDS011;4988;49.238;6.698;2023-06-04T07:19:31;6.63;;;2.00;;
9898;SDS011;4988;49.238;6.698;2023-06-04T07:21:56;4.50;;;1.60;;
9898;SDS011;4988;49.238;6.698;2023-06-04T07:24:22;3.47;;;1.60;;
9898;SDS011;4988;49.238;6.698;2023-06-04T07:26:47;8.67;;;2.00;;
9898;SDS011;4988;49.238;6.698;2023-06-04T07:29:13;3.23;;;1.70;;
9898;SDS011;4988;49.238;6.698;2023-06-04T07:31:38;6.33;;;1.90;;
9898;SDS011;4988;49.238;6.698;2023-06-04T07:34:04;5.83;;;1.80;;
9898;SDS011;4988;49.238;6.698;2023-06-04T07:36:29;3.63;;;1.73;;
9898;SDS011;4988;49.238;6.698;2023-06-04T07:38:56;4.70;;;1.50;;
9898;SDS011;4988;49.238;6.698;2023-06-04T07:41:21;4.03;;;1.90;;
9898;SDS011;4988;49.238;6.698;2023-06-04T07:43:47;5.57;;;1.90;;
9898;SDS011;4988;49.238;6.698;2023-06-04T07:46:12;3.93;;;1.60;;
9898;SDS011;4988;49.238;6.698;2023-06-04T07:48:37;2.30;;;1.60;;
9898;SDS011;4988;49.238;6.698;2023-06-04T07:51:03;4.50;;;1.53;;
9898;SDS011;4988;49.238;6.698;2023-06-04T07:53:29;4.33;;;1.60;;
9898;SDS011;4988;49.238;6.698;2023-06-04T07:55:54;2.93;;;1.70;;
9898;SDS011;4988;49.238;6.698;2023-06-04T07:58:21;4.03;;;1.90;;
9898;SDS011;4988;49.238;6.698;2023-06-04T08:00:46;2.87;;;1.73;;
9898;SDS011;4988;49.238;6.698;2023-06-04T08:03:12;5.00;;;1.73;;
9898;SDS011;4988;49.238;6.698;2023-06-04T08:05:37;4.13;;;1.50;;
9898;SDS011;4988;49.238;6.698;2023-06-04T08:08:03;6.03;;;2.07;;
9898;SDS011;4988;49.238;6.698;2023-06-04T08:10:29;3.33;;;1.90;;
9898;SDS011;4988;49.238;6.698;2023-06-04T08:12:55;4.30;;;1.40;;
9898;SDS011;4988;49.238;6.698;2023-06-04T08:15:21;9.33;;;2.10;;
9898;SDS011;4988;49.238;6.698;2023-06-04T08:17:46;2.63;;;1.70;;
9898;SDS011;4988;49.238;6.698;2023-06-04T08:20:11;4.17;;;1.70;;
9898;SDS011;4988;49.238;6.698;2023-06-04T08:22:37;3.50;;;1.73;;
9898;SDS011;4988;49.238;6.698;2023-06-04T08:25:02;3.07;;;1.80;;
9898;SDS011;4988;49.238;6.698;2023-06-04T08:27:31;3.67;;;1.70;;
9898;SDS011;4988;49.238;6.698;2023-06-04T08:29:57;4.53;;;1.70;;
9898;SDS011;4988;49.238;6.698;2023-06-04T08:32:23;4.07;;;1.90;;
9898;SDS011;4988;49.238;6.698;2023-06-04T08:34:48;4.03;;;2.00;;
9898;SDS011;4988;49.238;6.698;2023-06-04T08:37:14;4.63;;;1.83;;
9898;SDS011;4988;49.238;6.698;2023-06-04T08:39:40;5.27;;;2.20;;
9898;SDS011;4988;49.238;6.698;2023-06-04T08:42:09;3.63;;;1.80;;
9898;SDS011;4988;49.238;6.698;2023-06-04T08:44:41;2.90;;;1.80;;
9898;SDS011;4988;49.238;6.698;2023-06-04T08:47:08;3.13;;;1.97;;
9898;SDS011;4988;49.238;6.698;2023-06-04T08:49:37;5.00;;;2.00;;
9898;SDS011;4988;49.238;6.698;2023-06-04T08:52:05;7.73;;;1.80;;
9898;SDS011;4988;49.238;6.698;2023-06-04T08:54:31;3.33;;;2.00;;
9898;SDS011;4988;49.238;6.698;2023-06-04T08:56:58;3.83;;;1.80;;
9898;SDS011;4988;49.238;6.698;2023-06-04T08:59:25;4.30;;;2.30;;
9898;SDS011;4988;49.238;6.698;2023-06-04T09:01:55;5.53;;;1.97;;
9898;SDS011;4988;49.238;6.698;2023-06-04T09:04:23;5.57;;;2.07;;
9898;SDS011;4988;49.238;6.698;2023-06-04T09:06:49;3.73;;;1.90;;
9898;SDS011;4988;49.238;6.698;2023-06-04T09:09:15;2.20;;;1.53;;
9898;SDS011;4988;49.238;6.698;2023-06-04T09:11:52;2.60;;;1.57;;
9898;SDS011;4988;49.238;6.698;2023-06-04T09:14:18;5.17;;;1.93;;
9898;SDS011;4988;49.238;6.698;2023-06-04T09:16:47;3.50;;;1.60;;
9898;SDS011;4988;49.238;6.698;2023-06-04T09:19:14;4.10;;;2.00;;
9898;SDS011;4988;49.238;6.698;2023-06-04T09:21:50;4.17;;;1.90;;
9898;SDS011;4988;49.238;6.698;2023-06-04T09:24:20;3.70;;;1.67;;
9898;SDS011;4988;49.238;6.698;2023-06-04T09:26:47;4.43;;;2.00;;
9898;SDS011;4988;49.238;6.698;2023-06-04T09:29:14;4.90;;;1.90;;
9898;SDS011;4988;49.238;6.698;2023-06-04T09:31:40;3.93;;;1.97;;
9898;SDS011;4988;49.238;6.698;2023-06-04T09:34:05;4.83;;;1.77;;
9898;SDS011;4988;49.238;6.698;2023-06-04T09:36:35;5.63;;;2.17;;
9898;SDS011;4988;49.238;6.698;2023-06-04T09:39:03;5.43;;;2.07;;
9898;SDS011;4988;49.238;6.698;2023-06-04T09:41:39;4.40;;;2.30;;
9898;SDS011;4988;49.238;6.698;2023-06-04T09:44:04;7.53;;;2.40;;
9898;SDS011;4988;49.238;6.698;2023-06-04T09:46:31;5.03;;;1.90;;
9898;SDS011;4988;49.238;6.698;2023-06-04T09:49:01;3.90;;;2.10;;
9898;SDS011;4988;49.238;6.698;2023-06-04T09:51:28;4.67;;;2.10;;
9898;SDS011;4988;49.238;6.698;2023-06-04T09:53:57;4.47;;;1.90;;
9898;SDS011;4988;49.238;6.698;2023-06-04T09:56:24;3.57;;;1.80;;
9898;SDS011;4988;49.238;6.698;2023-06-04T09:59:00;4.77;;;2.40;;
9898;SDS011;4988;49.238;6.698;2023-06-04T10:01:26;5.13;;;2.07;;
9898;SDS011;4988;49.238;6.698;2023-06-04T10:03:53;4.23;;;1.90;;
9898;SDS011;4988;49.238;6.698;2023-06-04T10:06:21;5.17;;;2.30;;
9898;SDS011;4988;49.238;6.698;2023-06-04T10:08:48;4.70;;;2.20;;
9898;SDS011;4988;49.238;6.698;2023-06-04T10:11:15;9.87;;;2.60;;
9898;SDS011;4988;49.238;6.698;2023-06-04T10:13:56;4.73;;;2.40;;
9898;SDS011;4988;49.238;6.698;2023-06-04T10:16:27;4.07;;;2.40;;
9898;SDS011;4988;49.238;6.698;2023-06-04T10:18:55;6.83;;;2.10;;
9898;SDS011;4988;49.238;6.698;2023-06-04T10:21:22;6.93;;;2.40;;
9898;SDS011;4988;49.238;6.698;2023-06-04T10:23:48;6.37;;;2.23;;
9898;SDS011;4988;49.238;6.698;2023-06-04T10:26:15;5.13;;;2.53;;
9898;SDS011;4988;49.238;6.698;2023-06-04T10:28:41;5.33;;;2.10;;
9898;SDS011;4988;49.238;6.698;2023-06-04T10:31:10;4.93;;;2.20;;
9898;SDS011;4988;49.238;6.698;2023-06-04T10:33:36;6.83;;;2.10;;
9898;SDS011;4988;49.238;6.698;2023-06-04T10:36:21;5.23;;;2.40;;
9898;SDS011;4988;49.238;6.698;2023-06-04T10:38:49;4.90;;;2.07;;
9898;SDS011;4988;49.238;6.698;2023-06-04T10:41:19;5.27;;;2.50;;
9898;SDS011;4988;49.238;6.698;2023-06-04T10:43:49;7.70;;;2.13;;
9898;SDS011;4988;49.238;6.698;2023-06-04T10:46:16;5.30;;;2.10;;
9898;SDS011;4988;49.238;6.698;2023-06-04T10:48:46;5.40;;;2.87;;
9898;SDS011;4988;49.238;6.698;2023-06-04T10:51:13;5.90;;;2.57;;
9898;SDS011;4988;49.238;6.698;2023-06-04T10:53:39;4.37;;;2.60;;
9898;SDS011;4988;49.238;6.698;2023-06-04T10:56:04;6.53;;;2.40;;
9898;SDS011;4988;49.238;6.698;2023-06-04T10:58:35;8.47;;;2.77;;
9898;SDS011;4988;49.238;6.698;2023-06-04T11:01:01;9.40;;;2.50;;
9898;SDS011;4988;49.238;6.698;2023-06-04T11:03:36;4.57;;;2.73;;
9898;SDS011;4988;49.238;6.698;2023-06-04T11:06:02;5.90;;;2.50;;
9898;SDS011;4988;49.238;6.698;2023-06-04T11:08:39;5.13;;;2.20;;
9898;SDS011;4988;49.238;6.698;2023-06-04T11:11:10;4.33;;;2.63;;
9898;SDS011;4988;49.238;6.698;2023-06-04T11:13:36;6.47;;;2.50;;
9898;SDS011;4988;49.238;6.698;2023-06-04T11:16:01;4.43;;;2.30;;
9898;SDS011;4988;49.238;6.698;2023-06-04T11:18:27;4.50;;;2.43;;
9898;SDS011;4988;49.238;6.698;2023-06-04T11:21:01;7.93;;;2.60;;
9898;SDS011;4988;49.238;6.698;2023-06-04T11:23:26;4.23;;;2.70;;
9898;SDS011;4988;49.238;6.698;2023-06-04T11:25:52;4.53;;;2.40;;
9898;SDS011;4988;49.238;6.698;2023-06-04T11:28:18;7.73;;;2.90;;
9898;SDS011;4988;49.238;6.698;2023-06-04T11:30:55;6.77;;;2.67;;
9898;SDS011;4988;49.238;6.698;2023-06-04T11:33:21;5.13;;;2.40;;
9898;SDS011;4988;49.238;6.698;2023-06-04T11:35:46;3.83;;;2.47;;
9898;SDS011;4988;49.238;6.698;2023-06-04T11:38:11;7.37;;;2.60;;
9898;SDS011;4988;49.238;6.698;2023-06-04T11:40:37;6.83;;;2.30;;
9898;SDS011;4988;49.238;6.698;2023-06-04T11:43:03;5.43;;;2.43;;
9898;SDS011;4988;49.238;6.698;2023-06-04T11:45:28;3.67;;;2.47;;
9898;SDS011;4988;49.238;6.698;2023-06-04T11:47:55;4.87;;;2.93;;
9898;SDS011;4988;49.238;6.698;2023-06-04T11:50:22;3.87;;;2.30;;
9898;SDS011;4988;49.238;6.698;2023-06-04T11:52:48;6.93;;;2.73;;
9898;SDS011;4988;49.238;6.698;2023-06-04T11:55:14;8.03;;;2.70;;
9898;SDS011;4988;49.238;6.698;2023-06-04T11:57:42;7.07;;;2.57;;
9898;SDS011;4988;49.238;6.698;2023-06-04T12:00:08;4.70;;;2.57;;
9898;SDS011;4988;49.238;6.698;2023-06-04T12:02:38;5.33;;;2.90;;
9898;SDS011;4988;49.238;6.698;2023-06-04T12:05:13;7.03;;;2.83;;
9898;SDS011;4988;49.238;6.698;2023-06-04T12:07:39;5.87;;;2.70;;
9898;SDS011;4988;49.238;6.698;2023-06-04T12:10:08;9.63;;;2.57;;
9898;SDS011;4988;49.238;6.698;2023-06-04T12:12:34;5.27;;;2.73;;
9898;SDS011;4988;49.238;6.698;2023-06-04T12:15:00;4.30;;;2.40;;
9898;SDS011;4988;49.238;6.698;2023-06-04T12:17:26;5.30;;;2.77;;
9898;SDS011;4988;49.238;6.698;2023-06-04T12:19:51;4.33;;;2.43;;
9898;SDS011;4988;49.238;6.698;2023-06-04T12:22:17;4.23;;;2.60;;
9898;SDS011;4988;49.238;6.698;2023-06-04T12:24:49;4.40;;;2.63;;
9898;SDS011;4988;49.238;6.698;2023-06-04T12:27:19;4.27;;;2.70;;
9898;SDS011;4988;49.238;6.698;2023-06-04T12:29:56;3.67;;;2.47;;
9898;SDS011;4988;49.238;6.698;2023-06-04T12:32:26;4.43;;;3.10;;
9898;SDS011;4988;49.238;6.698;2023-06-04T12:34:52;5.43;;;2.70;;
9898;SDS011;4988;49.238;6.698;2023-06-04T12:37:17;5.23;;;2.60;;
9898;SDS011;4988;49.238;6.698;2023-06-04T12:39:43;6.03;;;3.30;;
9898;SDS011;4988;49.238;6.698;2023-06-04T12:42:08;4.70;;;2.73;;
9898;SDS011;4988;49.238;6.698;2023-06-04T12:44:40;7.63;;;2.90;;
9898;SDS011;4988;49.238;6.698;2023-06-04T12:47:06;4.80;;;2.33;;
9898;SDS011;4988;49.238;6.698;2023-06-04T12:49:33;8.83;;;2.90;;
9898;SDS011;4988;49.238;6.698;2023-06-04T12:51:58;7.03;;;3.13;;
9898;SDS011;4988;49.238;6.698;2023-06-04T12:54:24;7.30;;;2.70;;
9898;SDS011;4988;49.238;6.698;2023-06-04T12:56:49;9.03;;;2.20;;
9898;SDS011;4988;49.238;6.698;2023-06-04T12:59:15;5.70;;;2.60;;
9898;SDS011;4988;49.238;6.698;2023-06-04T13:01:41;4.63;;;2.30;;
9898;SDS011;4988;49.238;6.698;2023-06-04T13:04:06;4.47;;;2.53;;
9898;SDS011;4988;49.238;6.698;2023-06-04T13:06:33;4.70;;;2.40;;
9898;SDS011;4988;49.238;6.698;2023-06-04T13:08:59;3.87;;;2.60;;
9898;SDS011;4988;49.238;6.698;2023-06-04T13:11:25;5.20;;;2.60;;
9898;SDS011;4988;49.238;6.698;2023-06-04T13:13:50;4.47;;;3.00;;
9898;SDS011;4988;49.238;6.698;2023-06-04T13:16:16;6.70;;;2.60;;
9898;SDS011;4988;49.238;6.698;2023-06-04T13:18:41;5.47;;;2.63;;
9898;SDS011;4988;49.238;6.698;2023-06-04T13:21:06;5.60;;;2.50;;
9898;SDS011;4988;49.238;6.698;2023-06-04T13:23:32;5.07;;;2.70;;
9898;SDS011;4988;49.238;6.698;2023-06-04T13:25:57;6.07;;;2.90;;
9898;SDS011;4988;49.238;6.698;2023-06-04T13:28:22;7.77;;;2.47;;
9898;SDS011;4988;49.238;6.698;2023-06-04T13:30:48;6.93;;;2.80;;
9898;SDS011;4988;49.238;6.698;2023-06-04T13:33:13;5.70;;;2.40;;
9898;SDS011;4988;49.238;6.698;2023-06-04T13:35:39;14.63;;;2.70;;
9898;SDS011;4988;49.238;6.698;2023-06-04T13:38:05;5.97;;;3.00;;
9898;SDS011;4988;49.238;6.698;2023-06-04T13:40:31;8.40;;;3.00;;
9898;SDS011;4988;49.238;6.698;2023-06-04T13:42:59;4.73;;;2.80;;
9898;SDS011;4988;49.238;6.698;2023-06-04T13:45:24;3.50;;;2.30;;
9898;SDS011;4988;49.238;6.698;2023-06-04T13:47:49;6.90;;;3.20;;
9898;SDS011;4988;49.238;6.698;2023-06-04T13:50:15;4.90;;;2.67;;
9898;SDS011;4988;49.238;6.698;2023-06-04T13:52:40;5.03;;;2.80;;
9898;SDS011;4988;49.238;6.698;2023-06-04T13:55:06;6.73;;;2.73;;
9898;SDS011;4988;49.238;6.698;2023-06-04T13:57:32;8.00;;;2.43;;
9898;SDS011;4988;49.238;6.698;2023-06-04T13:59:57;3.70;;;2.43;;
9898;SDS011;4988;49.238;6.698;2023-06-04T14:02:23;5.37;;;2.73;;
9898;SDS011;4988;49.238;6.698;2023-06-04T14:04:49;5.40;;;2.73;;
9898;SDS011;4988;49.238;6.698;2023-06-04T14:07:16;4.93;;;2.87;;
9898;SDS011;4988;49.238;6.698;2023-06-04T14:09:41;4.37;;;2.60;;
9898;SDS011;4988;49.238;6.698;2023-06-04T14:12:07;7.43;;;2.60;;
9898;SDS011;4988;49.238;6.698;2023-06-04T14:14:33;4.17;;;2.70;;
9898;SDS011;4988;49.238;6.698;2023-06-04T14:17:02;6.33;;;3.00;;
9898;SDS011;4988;49.238;6.698;2023-06-04T14:19:28;6.53;;;2.80;;
9898;SDS011;4988;49.238;6.698;2023-06-04T14:21:53;7.63;;;2.77;;
9898;SDS011;4988;49.238;6.698;2023-06-04T14:24:19;7.37;;;2.77;;
9898;SDS011;4988;49.238;6.698;2023-06-04T14:26:44;6.63;;;3.00;;
9898;SDS011;4988;49.238;6.698;2023-06-04T14:29:10;8.13;;;3.10;;
9898;SDS011;4988;49.238;6.698;2023-06-04T14:31:36;5.67;;;3.00;;
9898;SDS011;4988;49.238;6.698;2023-06-04T14:34:01;6.10;;;3.10;;
9898;SDS011;4988;49.238;6.698;2023-06-04T14:36:26;6.17;;;3.20;;
9898;SDS011;4988;49.238;6.698;2023-06-04T14:38:52;6.93;;;3.40;;
9898;SDS011;4988;49.238;6.698;2023-06-04T14:41:17;8.47;;;2.90;;
9898;SDS011;4988;49.238;6.698;2023-06-04T14:43:43;6.47;;;3.30;;
9898;SDS011;4988;49.238;6.698;2023-06-04T14:46:08;6.97;;;2.80;;
9898;SDS011;4988;49.238;6.698;2023-06-04T14:48:33;5.13;;;3.13;;
9898;SDS011;4988;49.238;6.698;2023-06-04T14:50:59;6.17;;;2.80;;
9898;SDS011;4988;49.238;6.698;2023-06-04T14:53:24;6.93;;;3.57;;
9898;SDS011;4988;49.238;6.698;2023-06-04T14:55:50;7.70;;;3.10;;
9898;SDS011;4988;49.238;6.698;2023-06-04T14:58:17;4.87;;;3.20;;
9898;SDS011;4988;49.238;6.698;2023-06-04T15:00:42;4.53;;;3.20;;
9898;SDS011;4988;49.238;6.698;2023-06-04T15:03:07;6.33;;;3.27;;
9898;SDS011;4988;49.238;6.698;2023-06-04T15:05:33;5.23;;;3.17;;
9898;SDS011;4988;49.238;6.698;2023-06-04T15:07:59;5.77;;;3.20;;
9898;SDS011;4988;49.238;6.698;2023-06-04T15:10:24;5.50;;;3.03;;
9898;SDS011;4988;49.238;6.698;2023-06-04T15:12:50;4.67;;;3.13;;
9898;SDS011;4988;49.238;6.698;2023-06-04T15:15:17;5.27;;;3.27;;